Clarksboro, New Jersey
Current Conditions -  °F | °C
As of 2:03 AM on Monday 24 Nov 2014 (Local Time) from KPHL Reporting Station
Moderate Rain Moderate Rain  
Wind Chill: 57°   Ceiling: 700
Heat Index: 57°   Visibility: 4mi
Dew Point: 55°   Wind: 12mph
Humidity: 93%   Direction: 120°ESE
Pressure: 29.78"   Gusts: 20mph
Location:  39.8°N, 75.22°W
Report Text: KPHL 240703Z 12010G17KT 4SM RA BR BKN007 BKN012 OVC019 14/13 A2978 RMK AO2 P0002 T01390128 $
Loading
Personal Weather Stations






























Interactive Weather Map New forecast layout! Learn more

10-Day Weather Forecast

Advertisements
Track Severe Weather on mobile